createdAt,value
2023-01-05T00:00:46.612Z,12.59
2023-01-05T00:03:12.946Z,12.59
2023-01-05T00:05:39.287Z,12.56
2023-01-05T00:08:05.728Z,12.51
2023-01-05T00:10:50.763Z,12.54
2023-01-05T00:13:35.916Z,12.50
2023-01-05T00:16:21.008Z,12.52
2023-01-05T00:19:05.891Z,12.53
2023-01-05T00:21:58.515Z,12.53
2023-01-05T00:24:25.068Z,12.50
2023-01-05T00:26:51.436Z,12.48
2023-01-05T00:29:17.760Z,12.47
2023-01-05T00:31:44.224Z,12.49
2023-01-05T00:34:10.565Z,12.47
2023-01-05T00:36:37.048Z,12.48
2023-01-05T00:39:03.460Z,12.52
2023-01-05T00:41:30.002Z,12.49
2023-01-05T00:43:56.331Z,12.45
2023-01-05T00:46:22.700Z,12.41
2023-01-05T00:48:49.089Z,12.43
2023-01-05T00:51:15.476Z,12.42
2023-01-05T00:53:41.831Z,12.41
2023-01-05T00:56:08.202Z,12.40
2023-01-05T00:58:34.544Z,12.43
2023-01-05T01:01:01.180Z,12.42
2023-01-05T01:03:27.658Z,12.42
2023-01-05T01:06:00.380Z,12.38
2023-01-05T01:08:26.716Z,12.40
2023-01-05T01:10:53.130Z,12.41
2023-01-05T01:13:19.506Z,12.35
2023-01-05T01:15:45.850Z,12.40
2023-01-05T01:18:12.165Z,12.37
2023-01-05T01:20:38.931Z,12.33
2023-01-05T01:23:05.353Z,12.37
2023-01-05T01:25:31.700Z,12.34
2023-01-05T01:27:58.097Z,12.33
2023-01-05T01:30:24.515Z,12.37
2023-01-05T01:32:50.939Z,12.32
2023-01-05T01:35:17.261Z,12.31
2023-01-05T01:37:43.628Z,12.29
2023-01-05T01:40:10.235Z,12.30
2023-01-05T01:42:36.804Z,12.29
2023-01-05T01:45:15.534Z,12.31
2023-01-05T01:47:43.851Z,12.31
2023-01-05T01:50:15.648Z,12.30
2023-01-05T01:52:43.072Z,12.31
2023-01-05T01:55:10.337Z,12.32
2023-01-05T01:57:36.963Z,12.30
2023-01-05T02:00:05.404Z,12.29
2023-01-05T02:02:31.817Z,12.31
2023-01-05T02:05:01.275Z,12.30
2023-01-05T02:07:29.966Z,12.28
2023-01-05T02:09:56.295Z,12.26
2023-01-05T02:12:30.063Z,12.27
2023-01-05T02:15:08.336Z,12.28
2023-01-05T02:17:40.650Z,12.28
2023-01-05T02:20:22.099Z,12.30
2023-01-05T02:23:16.230Z,12.28
2023-01-05T02:25:54.763Z,12.25
2023-01-05T02:28:41.354Z,12.25
2023-01-05T02:31:17.104Z,12.28
2023-01-05T02:33:54.918Z,12.27
2023-01-05T02:36:28.538Z,12.23
2023-01-05T02:39:01.070Z,12.25
2023-01-05T02:41:30.533Z,12.26
2023-01-05T02:43:57.699Z,12.23
2023-01-05T02:46:24.108Z,12.26
2023-01-05T02:48:52.007Z,12.24
2023-01-05T02:51:23.247Z,12.24
2023-01-05T02:53:57.072Z,12.25
2023-01-05T02:56:25.655Z,12.20
2023-01-05T02:58:54.885Z,12.21
2023-01-05T03:01:26.907Z,12.18
2023-01-05T03:04:14.198Z,12.20
2023-01-05T03:06:47.968Z,12.17
2023-01-05T03:09:20.025Z,12.18
2023-01-05T03:12:25.261Z,12.16
2023-01-05T03:14:57.698Z,12.15
2023-01-05T03:17:32.183Z,12.15
2023-01-05T03:19:58.629Z,12.16
2023-01-05T03:22:45.549Z,12.13
2023-01-05T03:25:32.038Z,12.15
2023-01-05T03:28:17.573Z,12.13
2023-01-05T03:31:10.826Z,12.14
2023-01-05T03:34:17.812Z,12.14
2023-01-05T03:36:47.499Z,12.14
2023-01-05T03:39:15.338Z,12.11
2023-01-05T03:41:41.954Z,12.13
2023-01-05T03:44:08.457Z,12.13
2023-01-05T03:46:35.024Z,12.16
2023-01-05T03:49:01.479Z,12.10
2023-01-05T03:51:27.827Z,12.08
2023-01-05T03:53:54.248Z,12.12
2023-01-05T03:56:20.525Z,12.12
2023-01-05T03:58:46.858Z,12.10
2023-01-05T04:01:13.267Z,12.12
2023-01-05T04:03:40.703Z,12.11
2023-01-05T04:06:07.258Z,12.07
2023-01-05T04:08:33.556Z,12.09
2023-01-05T04:11:16.916Z,12.12
2023-01-05T04:13:43.427Z,12.09
2023-01-05T04:16:11.531Z,12.09
2023-01-05T04:18:37.954Z,12.05
2023-01-05T04:21:04.430Z,12.07
2023-01-05T04:23:30.914Z,12.06
2023-01-05T04:25:57.320Z,12.10
2023-01-05T04:28:23.703Z,12.08
2023-01-05T04:30:51.339Z,12.05
2023-01-05T04:33:17.943Z,12.04
2023-01-05T04:35:44.346Z,12.08
2023-01-05T04:38:10.991Z,12.08
2023-01-05T04:40:37.464Z,12.07
2023-01-05T04:43:03.968Z,12.06
2023-01-05T04:45:32.783Z,12.03
2023-01-05T04:47:59.146Z,12.01
2023-01-05T04:50:25.576Z,12.02
2023-01-05T04:52:51.948Z,11.97
2023-01-05T04:55:18.393Z,11.99
2023-01-05T04:57:44.773Z,12.01
2023-01-05T05:00:11.452Z,11.99
2023-01-05T05:02:37.941Z,12.02
2023-01-05T05:05:04.522Z,12.04
2023-01-05T05:07:30.899Z,12.02
2023-01-05T05:09:57.256Z,12.04
2023-01-05T05:12:23.551Z,12.04
2023-01-05T05:14:49.870Z,12.02
2023-01-05T05:17:16.356Z,12.03
2023-01-05T05:19:43.179Z,12.04
2023-01-05T05:22:09.676Z,12.02
2023-01-05T05:24:35.989Z,12.01
2023-01-05T05:27:02.354Z,12.05
2023-01-05T05:29:28.690Z,12.02
2023-01-05T05:31:55.179Z,12.03
2023-01-05T05:34:21.529Z,12.03
2023-01-05T05:36:48.277Z,11.99
2023-01-05T05:39:15.250Z,11.98
2023-01-05T05:41:42.006Z,11.99
2023-01-05T05:44:08.656Z,12.01
2023-01-05T05:46:35.328Z,11.97
2023-01-05T05:49:01.680Z,12.01
2023-01-05T05:51:28.118Z,12.03
2023-01-05T05:53:54.435Z,12.01
2023-01-05T05:56:21.071Z,12.03
2023-01-05T05:58:47.437Z,12.03
2023-01-05T06:01:13.899Z,12.04
2023-01-05T06:03:40.349Z,12.05
2023-01-05T06:06:06.849Z,12.01
2023-01-05T06:08:33.253Z,12.02
2023-01-05T06:10:59.602Z,11.99
2023-01-05T06:13:25.980Z,11.97
2023-01-05T06:15:52.752Z,11.95
2023-01-05T06:18:19.119Z,11.97
2023-01-05T06:20:45.902Z,11.96
2023-01-05T06:23:12.359Z,11.95
2023-01-05T06:25:38.770Z,11.95
2023-01-05T06:28:05.156Z,11.95
2023-01-05T06:30:31.813Z,12.07
2023-01-05T06:32:58.199Z,12.11
2023-01-05T06:35:24.519Z,12.15
2023-01-05T06:37:50.881Z,12.15
2023-01-05T06:40:17.296Z,12.15
2023-01-05T06:42:43.667Z,12.18
2023-01-05T06:45:11.908Z,12.16
2023-01-05T06:47:38.257Z,12.14
2023-01-05T06:50:05.004Z,12.12
2023-01-05T06:52:36.411Z,12.08
2023-01-05T06:55:03.572Z,12.10
2023-01-05T06:57:30.004Z,12.10
2023-01-05T06:59:56.372Z,12.12
2023-01-05T07:02:22.792Z,12.13
2023-01-05T07:05:04.161Z,12.15
2023-01-05T07:07:30.524Z,12.08
2023-01-05T07:09:56.907Z,11.89
2023-01-05T07:12:23.337Z,12.07
2023-01-05T07:14:54.355Z,12.10
2023-01-05T07:17:23.753Z,12.10
2023-01-05T07:19:50.084Z,12.09
2023-01-05T07:22:16.389Z,12.12
2023-01-05T07:24:42.743Z,12.13
2023-01-05T07:27:09.985Z,12.10
2023-01-05T07:29:37.036Z,12.11
2023-01-05T07:32:03.714Z,12.10
2023-01-05T07:34:30.194Z,12.10
2023-01-05T07:36:56.559Z,12.11
2023-01-05T07:39:23.047Z,12.10
2023-01-05T07:41:49.714Z,12.12
2023-01-05T07:44:16.760Z,12.15
2023-01-05T07:46:43.235Z,12.15
2023-01-05T07:49:09.597Z,12.14
2023-01-05T07:51:37.028Z,12.19
2023-01-05T07:54:03.458Z,12.16
2023-01-05T07:56:29.846Z,12.14
2023-01-05T07:58:56.223Z,12.13
2023-01-05T08:01:22.599Z,12.09
2023-01-05T08:03:49.114Z,12.13
2023-01-05T08:06:17.650Z,12.19
2023-01-05T08:08:44.113Z,12.18
2023-01-05T08:11:15.364Z,12.17
2023-01-05T08:14:00.400Z,12.22
2023-01-05T08:16:32.380Z,12.19
2023-01-05T08:18:59.503Z,12.13
2023-01-05T08:21:26.532Z,12.16
2023-01-05T08:23:59.154Z,12.18
2023-01-05T08:26:25.555Z,12.19
2023-01-05T08:28:52.178Z,12.22
2023-01-05T08:31:20.415Z,12.23
2023-01-05T08:33:46.945Z,12.24
2023-01-05T08:36:14.808Z,12.25
2023-01-05T08:38:47.962Z,12.27
2023-01-05T08:41:18.455Z,12.24
2023-01-05T08:43:49.164Z,12.27
2023-01-05T08:46:15.734Z,12.25
2023-01-05T08:48:42.129Z,12.23
2023-01-05T08:51:08.434Z,12.28
2023-01-05T08:53:35.049Z,12.28
2023-01-05T08:56:02.016Z,12.30
2023-01-05T08:58:28.557Z,12.30
2023-01-05T09:00:55.064Z,12.33
2023-01-05T09:03:21.486Z,12.36
2023-01-05T09:05:47.894Z,12.29
2023-01-05T09:08:14.240Z,12.31
2023-01-05T09:10:40.566Z,12.33
2023-01-05T09:13:06.882Z,12.30
2023-01-05T09:15:34.998Z,12.30
2023-01-05T09:18:01.454Z,12.31
2023-01-05T09:20:27.903Z,12.36
2023-01-05T09:22:54.377Z,12.38
2023-01-05T09:25:20.680Z,12.33
2023-01-05T09:27:47.007Z,12.28
2023-01-05T09:30:15.600Z,12.35
2023-01-05T09:32:41.937Z,12.37
2023-01-05T09:35:08.605Z,12.35
2023-01-05T09:37:34.933Z,12.34
2023-01-05T09:40:01.252Z,12.47
2023-01-05T09:42:30.930Z,12.55
2023-01-05T09:45:00.070Z,12.47
2023-01-05T09:47:31.910Z,12.57
2023-01-05T09:49:59.496Z,12.62
2023-01-05T09:52:26.312Z,12.64
2023-01-05T09:54:52.637Z,12.61
2023-01-05T09:57:24.042Z,12.64
2023-01-05T09:59:52.221Z,12.66
2023-01-05T10:02:36.930Z,12.61
2023-01-05T10:05:05.287Z,12.61
2023-01-05T10:07:36.020Z,12.65
2023-01-05T10:10:05.925Z,12.72
2023-01-05T10:13:00.757Z,12.67
2023-01-05T10:15:27.522Z,12.67
2023-01-05T10:17:54.080Z,12.70
2023-01-05T10:20:32.231Z,12.72
2023-01-05T10:23:08.495Z,12.66
2023-01-05T10:25:34.983Z,12.67
2023-01-05T10:28:01.343Z,12.72
2023-01-05T10:30:46.477Z,12.78
2023-01-05T10:33:27.619Z,12.84
2023-01-05T10:36:28.031Z,12.78
2023-01-05T10:39:18.571Z,12.76
2023-01-05T10:41:52.945Z,12.75
2023-01-05T10:44:38.027Z,12.75
2023-01-05T10:47:08.489Z,12.80
2023-01-05T10:49:34.892Z,12.79
2023-01-05T10:52:01.499Z,12.88
2023-01-05T10:54:33.863Z,12.86
2023-01-05T10:57:19.176Z,12.83
2023-01-05T10:59:54.474Z,12.85
2023-01-05T11:02:21.172Z,12.84
2023-01-05T11:04:48.540Z,12.84
2023-01-05T11:07:14.967Z,12.88
2023-01-05T11:09:43.416Z,12.74
2023-01-05T11:12:20.303Z,12.94
2023-01-05T11:14:57.873Z,12.86
2023-01-05T11:17:29.053Z,12.88
2023-01-05T11:19:56.893Z,12.97
2023-01-05T11:22:28.256Z,13.11
2023-01-05T11:24:54.549Z,13.10
2023-01-05T11:27:20.910Z,13.05
2023-01-05T11:30:07.146Z,13.07
2023-01-05T11:32:33.658Z,13.09
2023-01-05T11:35:00.809Z,13.07
2023-01-05T11:37:28.583Z,13.07
2023-01-05T11:40:02.679Z,13.14
2023-01-05T11:42:32.133Z,13.20
2023-01-05T11:45:00.610Z,13.20
2023-01-05T11:47:41.348Z,13.15
2023-01-05T11:50:12.869Z,13.21
2023-01-05T11:52:44.008Z,13.22
2023-01-05T11:55:19.538Z,13.20
2023-01-05T11:57:52.760Z,13.30
2023-01-05T12:00:25.370Z,13.29
2023-01-05T12:02:54.650Z,13.30
2023-01-05T12:05:28.563Z,13.38
2023-01-05T12:08:01.199Z,13.41
2023-01-05T12:10:27.559Z,13.40
2023-01-05T12:13:06.287Z,13.39
2023-01-05T12:15:32.604Z,13.48
2023-01-05T12:17:59.213Z,13.61
2023-01-05T12:20:25.504Z,13.62
2023-01-05T12:23:14.071Z,13.52
2023-01-05T12:25:40.523Z,13.49
2023-01-05T12:28:35.762Z,13.41
2023-01-05T12:34:27.638Z,13.36
2023-01-05T12:37:19.299Z,13.30
2023-01-05T12:40:04.708Z,13.26
2023-01-05T12:42:48.259Z,13.19
2023-01-05T12:45:34.509Z,13.14
2023-01-05T12:48:05.766Z,13.12
2023-01-05T12:50:35.657Z,13.11
2023-01-05T12:53:08.174Z,13.05
2023-01-05T12:55:39.095Z,13.04
2023-01-05T12:58:10.188Z,12.97
2023-01-05T13:00:37.670Z,12.99
2023-01-05T13:03:10.565Z,13.03
2023-01-05T13:05:55.275Z,12.96
2023-01-05T13:08:29.423Z,12.93
2023-01-05T13:11:04.477Z,13.02
2023-01-05T13:13:34.555Z,13.11
2023-01-05T13:16:06.423Z,13.18
2023-01-05T13:18:35.615Z,13.25
2023-01-05T13:21:06.867Z,13.30
2023-01-05T13:23:44.367Z,13.35
2023-01-05T13:26:14.138Z,13.33
2023-01-05T13:28:40.591Z,13.32
2023-01-05T13:31:28.451Z,13.28
2023-01-05T13:33:55.438Z,13.26
2023-01-05T13:36:37.253Z,13.16
2023-01-05T13:39:13.333Z,13.11
2023-01-05T13:41:50.297Z,13.11
2023-01-05T13:44:25.027Z,13.13
2023-01-05T13:46:51.415Z,13.13
2023-01-05T13:49:20.930Z,13.05
2023-01-05T13:52:00.850Z,13.07
2023-01-05T13:54:32.988Z,13.08
2023-01-05T13:57:13.766Z,13.05
2023-01-05T13:59:52.324Z,13.04
2023-01-05T14:02:37.419Z,13.00
2023-01-05T14:05:15.125Z,13.08
2023-01-05T14:07:41.820Z,13.09
2023-01-05T14:10:28.553Z,13.11
2023-01-05T14:12:55.509Z,13.06
2023-01-05T14:15:37.510Z,13.10
2023-01-05T14:18:05.077Z,13.16
2023-01-05T14:20:49.299Z,13.10
2023-01-05T14:23:30.088Z,13.11
2023-01-05T14:25:57.192Z,13.06
2023-01-05T14:28:26.509Z,13.03
2023-01-05T14:31:18.725Z,13.07
2023-01-05T14:33:57.415Z,13.05
2023-01-05T14:36:42.090Z,13.04
2023-01-05T14:39:17.464Z,13.03
2023-01-05T14:41:45.052Z,13.04
2023-01-05T14:44:19.855Z,13.08
2023-01-05T14:46:56.095Z,13.04
2023-01-05T14:49:26.159Z,13.02
2023-01-05T14:51:53.947Z,13.01
2023-01-05T14:54:34.797Z,12.93
2023-01-05T14:57:19.816Z,12.94
2023-01-05T14:59:47.059Z,12.91
2023-01-05T15:02:17.548Z,12.94
2023-01-05T15:04:44.169Z,12.94
2023-01-05T15:07:26.327Z,12.95
2023-01-05T15:10:10.004Z,12.94
2023-01-05T15:12:48.308Z,12.96
2023-01-05T15:15:34.531Z,13.00
2023-01-05T15:18:04.256Z,13.02
2023-01-05T15:20:49.757Z,12.98
2023-01-05T15:23:16.109Z,12.97
2023-01-05T15:25:49.424Z,12.95
2023-01-05T15:28:30.367Z,12.92
2023-01-05T15:31:10.753Z,12.89
2023-01-05T15:33:41.390Z,12.88
2023-01-05T15:36:14.908Z,12.88
2023-01-05T15:38:46.289Z,12.89
2023-01-05T15:41:14.330Z,12.87
2023-01-05T15:43:42.414Z,12.87
2023-01-05T15:46:10.003Z,12.87
2023-01-05T15:48:44.174Z,12.91
2023-01-05T15:51:12.057Z,12.89
2023-01-05T15:53:44.158Z,12.88
2023-01-05T15:56:33.830Z,12.86
2023-01-05T15:59:00.519Z,12.84
2023-01-05T16:01:28.493Z,12.81
2023-01-05T16:04:07.972Z,12.77
2023-01-05T16:06:39.302Z,12.78
2023-01-05T16:09:29.030Z,12.75
2023-01-05T16:11:58.715Z,12.67
2023-01-05T16:14:45.043Z,12.60
2023-01-05T16:17:16.688Z,12.54
2023-01-05T16:20:06.204Z,12.50
2023-01-05T16:22:39.968Z,12.44
2023-01-05T16:25:15.236Z,12.40
2023-01-05T16:27:44.243Z,12.38
2023-01-05T16:30:17.018Z,12.34
2023-01-05T16:32:43.475Z,12.38
2023-01-05T16:35:20.186Z,12.35
2023-01-05T16:38:01.533Z,12.29
2023-01-05T16:40:27.978Z,12.31
2023-01-05T16:42:56.466Z,12.29
2023-01-05T16:45:24.119Z,12.30
2023-01-05T16:47:52.419Z,12.30
2023-01-05T16:50:19.428Z,12.28
2023-01-05T16:53:06.408Z,12.26
2023-01-05T16:55:35.495Z,12.29
2023-01-05T16:58:02.910Z,12.31
2023-01-05T17:00:33.294Z,12.28
2023-01-05T17:03:22.578Z,12.27
2023-01-05T17:05:51.946Z,12.23
2023-01-05T17:08:23.144Z,12.24
2023-01-05T17:10:49.693Z,12.27
2023-01-05T17:13:22.038Z,12.31
2023-01-05T17:15:49.096Z,12.29
2023-01-05T17:20:55.046Z,12.33
2023-01-05T17:23:27.250Z,12.27
2023-01-05T17:25:54.545Z,12.29
2023-01-05T17:28:24.452Z,12.27
2023-01-05T17:30:52.394Z,12.24
2023-01-05T17:33:18.922Z,12.20
2023-01-05T17:38:17.908Z,12.20
2023-01-05T17:40:44.384Z,12.21
2023-01-05T17:43:10.770Z,12.23
2023-01-05T17:45:38.594Z,12.21
2023-01-05T17:48:05.052Z,12.11
2023-01-05T17:53:04.421Z,12.08
2023-01-05T17:55:31.382Z,12.07
2023-01-05T17:57:57.873Z,12.09
2023-01-05T18:00:25.556Z,12.09
2023-01-05T18:02:52.584Z,12.09
2023-01-05T18:05:19.258Z,12.12
2023-01-05T18:07:46.009Z,12.20
2023-01-05T18:10:16.886Z,12.09
2023-01-05T18:12:43.498Z,12.04
2023-01-05T18:15:10.655Z,12.13
2023-01-05T18:20:09.089Z,12.12
2023-01-05T18:22:36.964Z,12.12
2023-01-05T18:25:03.622Z,12.06
2023-01-05T18:27:35.244Z,12.08
2023-01-05T18:30:02.305Z,12.07
2023-01-05T18:35:01.098Z,12.06
2023-01-05T18:37:29.570Z,12.14
2023-01-05T18:39:56.026Z,12.13
2023-01-05T18:42:22.615Z,12.09
2023-01-05T18:44:49.315Z,12.06
2023-01-05T18:47:16.041Z,12.03
2023-01-05T18:49:42.414Z,12.02
2023-01-05T18:52:08.794Z,12.11
2023-01-05T18:54:35.097Z,12.21
2023-01-05T18:57:01.575Z,12.23
2023-01-05T18:59:28.047Z,12.26
2023-01-05T19:01:54.483Z,12.29
2023-01-05T19:04:21.177Z,12.24
2023-01-05T19:06:47.544Z,12.17
2023-01-05T19:09:14.178Z,12.18
2023-01-05T19:11:43.995Z,12.20
2023-01-05T19:14:10.399Z,12.21
2023-01-05T19:16:38.541Z,12.20
2023-01-05T19:19:09.155Z,12.17
2023-01-05T19:21:36.854Z,12.18
2023-01-05T19:24:04.217Z,12.21
2023-01-05T19:26:31.596Z,12.23
2023-01-05T19:28:58.676Z,12.21
2023-01-05T19:31:25.195Z,12.21
2023-01-05T19:33:53.876Z,12.23
2023-01-05T19:36:22.609Z,12.22
2023-01-05T19:38:49.421Z,12.15
2023-01-05T19:41:17.022Z,12.13
2023-01-05T19:43:46.481Z,12.11
2023-01-05T19:46:19.288Z,12.05
2023-01-05T19:48:46.221Z,12.06
2023-01-05T19:51:17.437Z,12.09
2023-01-05T19:53:44.739Z,12.13
2023-01-05T19:56:15.056Z,12.14
2023-01-05T19:58:42.252Z,12.11
2023-01-05T20:01:14.127Z,12.12
2023-01-05T20:03:41.307Z,12.13
2023-01-05T20:06:09.002Z,12.14
2023-01-05T20:08:36.128Z,12.13
2023-01-05T20:11:09.721Z,12.07
2023-01-05T20:13:36.188Z,12.07
2023-01-05T20:16:04.368Z,12.06
2023-01-05T20:18:30.817Z,11.94
2023-01-05T20:21:01.273Z,12.04
2023-01-05T20:23:38.537Z,12.07
2023-01-05T20:26:09.958Z,12.10
2023-01-05T20:28:36.602Z,12.09
2023-01-05T20:31:03.678Z,12.09
2023-01-05T20:33:30.480Z,12.08
2023-01-05T20:35:56.878Z,12.06
2023-01-05T20:38:28.301Z,12.05
2023-01-05T20:40:54.716Z,12.05
2023-01-05T20:43:21.086Z,12.05
2023-01-05T20:45:47.443Z,12.06
2023-01-05T20:48:13.809Z,12.04
2023-01-05T20:50:40.308Z,12.06
2023-01-05T20:53:06.663Z,12.09
2023-01-05T20:55:36.850Z,12.10
2023-01-05T20:58:03.290Z,12.08
2023-01-05T21:00:29.691Z,12.08
2023-01-05T21:02:56.096Z,12.10
2023-01-05T21:05:22.526Z,12.10
2023-01-05T21:07:48.927Z,12.04
2023-01-05T21:10:15.478Z,12.07
2023-01-05T21:12:41.863Z,12.07
2023-01-05T21:15:08.634Z,12.05
2023-01-05T21:17:34.969Z,12.02
2023-01-05T21:20:02.619Z,12.00
2023-01-05T21:22:28.963Z,12.02
2023-01-05T21:24:55.328Z,12.02
2023-01-05T21:27:21.707Z,12.03
2023-01-05T21:29:48.689Z,12.02
2023-01-05T21:32:15.153Z,12.08
2023-01-05T21:34:41.488Z,12.12
2023-01-05T21:37:07.827Z,12.14
2023-01-05T21:39:34.407Z,12.11
2023-01-05T21:42:19.456Z,12.12
2023-01-05T21:44:45.825Z,12.13
2023-01-05T21:47:12.864Z,12.13
2023-01-05T21:49:39.299Z,12.11
2023-01-05T21:52:24.623Z,12.10
2023-01-05T21:55:09.669Z,12.11
2023-01-05T21:57:36.177Z,12.14
2023-01-05T22:00:02.506Z,12.12
2023-01-05T22:02:28.825Z,12.12
2023-01-05T22:04:55.179Z,12.15
2023-01-05T22:07:21.607Z,12.11
2023-01-05T22:09:47.983Z,12.13
2023-01-05T22:12:14.339Z,12.13
2023-01-05T22:14:40.792Z,12.14
2023-01-05T22:17:08.125Z,12.13
2023-01-05T22:19:34.785Z,12.12
2023-01-05T22:22:01.190Z,12.13
2023-01-05T22:24:27.555Z,12.15
2023-01-05T22:26:53.920Z,12.12
2023-01-05T22:29:20.422Z,12.13
2023-01-05T22:31:46.965Z,12.16
2023-01-05T22:34:13.465Z,12.17
2023-01-05T22:36:39.927Z,12.21
2023-01-05T22:39:06.341Z,12.18
2023-01-05T22:41:32.718Z,12.20
2023-01-05T22:43:59.374Z,12.23
2023-01-05T22:46:27.294Z,12.20
2023-01-05T22:48:54.364Z,12.16
2023-01-05T22:51:29.913Z,12.18
2023-01-05T22:53:57.059Z,12.19
2023-01-05T22:56:24.596Z,12.20
2023-01-05T22:58:51.359Z,12.21
2023-01-05T23:01:25.293Z,12.23
2023-01-05T23:03:52.499Z,12.21
2023-01-05T23:06:19.176Z,12.23
2023-01-05T23:08:45.856Z,12.22
2023-01-05T23:11:13.887Z,12.27
2023-01-05T23:13:40.364Z,12.26
2023-01-05T23:16:07.258Z,12.22
2023-01-05T23:18:37.536Z,12.24
2023-01-05T23:21:05.246Z,12.25
2023-01-05T23:23:32.077Z,12.21
2023-01-05T23:25:58.401Z,12.20
2023-01-05T23:28:25.588Z,12.19
2023-01-05T23:30:53.049Z,12.18
2023-01-05T23:33:20.566Z,12.18
2023-01-05T23:35:47.248Z,12.16
2023-01-05T23:38:14.024Z,12.13
2023-01-05T23:40:44.499Z,12.12
2023-01-05T23:43:11.619Z,12.15
2023-01-05T23:45:38.429Z,12.15
2023-01-05T23:48:04.841Z,12.14
2023-01-05T23:50:31.194Z,12.13
2023-01-05T23:52:58.547Z,12.15
2023-01-05T23:55:25.238Z,12.18
2023-01-05T23:57:51.639Z,12.19
